Sitka, AK (99835)

8:56 PM AKST on February 13, 2016 (GMT -0900)
Sitka Rocky Gutierrez | | Change Station
CLOSE
Current Station
Airport
Location: Sitka,
Elevation: 20 ft
Nearby Weather Stations

Elev 20 ft 57.05 °N, 135.36 °W | Updated 3 minutes ago

Overcast
Overcast
46 °F
Feels Like 42 °F
N
7
Wind Variable Wind from SE

Today
High -- | Low -- °F
--% Chance of Precip.
Yesterday
High -- | Low -- °F
Precip. -- in
Pressure 29.58 in
Visibility 10.0 miles
Clouds Mostly Cloudy 4700 ft
Overcast 6500 ft
Windchill 42 °F
Dew Point 36 °F
Humidity 68%
Rainfall 0.01 in
Snow Depth Not available.
7:35 AM 4:57 PM
Waxing Crescent, 38% visible
METAR PASI 140553Z 14006KT 10SM BKN047 OVC065 08/02 A2958 RMK AO2 SLP015 60000 T00780022 10089 20078 52007
Pressure 29.58 in
Visibility 10.0 miles
Clouds Mostly Cloudy 4700 ft
Overcast 6500 ft
Windchill 42 °F
Dew Point 36 °F
Humidity 68%
Rainfall 0.01 in
Snow Depth Not available.
7:35 AM 4:57 PM
Waxing Crescent, 38% visible
METAR PASI 140553Z 14006KT 10SM BKN047 OVC065 08/02 A2958 RMK AO2 SLP015 60000 T00780022 10089 20078 52007

10-Day Weather Forecast

Almanac

Astronomy

Feb. 13, 2016 Rise Set
Actual Time
Civil Twilight
Nautical Twilight
Astronomical Twilight
Moon
Length of Visible Light
Length of Day
Tomorrow will be .
, % of the Moon is Illuminated

Today's Extremes

State Highs State Lows

Community

WunderPhotos

Upload Photos

1,892,751 photos uploaded!

WunderBlog® & News

Nearby

Air Quality

  Air Quality AQ Index Pollutant
Not available.

Snow Depth

Station Depth Elevation

Earthquake Activity

City Distance Mag. Time & Date
Minimum magnitude displayed is 2.5.

Coastal Water Temperatures

Place Temperature

Stations

Nearby Weather Stations

Station Location Temp. Windchill Dew Point Humidity Wind Precip. Elev Updated Type
                   

Watches & Warnings

There are currently no watches in effect.